Nearby METAR Reports

 

CXKE - Kemptville, Ontario, Canada
Distance from station: ESE 39km
Updated: 24/05/2018 04:00

 Wind from WSW
Wind: WSW 2 km/h
Temperature: 6°C
Dew Point: 2°C
Humidity: 76%
2018/05/24 08:00 CXKE 240800Z AUTO 24001KT 06/02 RMK AO1 SLP195 T00620021 53006
CYOW - Ottawa Intl, Ontario, Canada
Distance from station: NE 43km
Updated: 24/05/2018 04:00
Few Clouds
Few Clouds
 Wind from NNW
Wind: NNW 7 km/h
Temperature: 11°C
Dew Point: -2°C
Humidity: 41%
Barometer: 1019.3 hPa
Clouds: Few Clouds
Visibility: 24 km
Cloud details: Few Clouds 3658 m
2018/05/24 08:00 CYOW 240800Z 34004KT 15SM FEW120 11/M02 A3010 RMK AC2 SLP196
 
CYND - Gatineau Airport, Quebec, Canada
Distance from station: NE 64km
Updated: 23/05/2018 21:00
NOT Current
Partly Cloudy
Partly Cloudy
 Wind from NNW
Wind: NNW 7 km/h
Temperature: 15°C
Dew Point: 0°C
Humidity: 36%
Barometer: 1016.6 hPa
Clouds: Partly Cloudy
Visibility: 24 km
Cloud details: Partly Cloudy 6706 m
2018/05/24 01:00 CYND 240100Z 34004KT 15SM SCT220 15/M00 A3002 RMK CI4 LAST STFD OBS/NEXT 241100 UTC SLP168
CYGK - Kingston, Ontario, CA
Distance from station: S 80km
Updated: 23/05/2018 23:00
NOT Current
Partly Cloudy
Partly Cloudy
 Wind from NNW
Wind: NNW 11 km/h
Temperature: 12°C
Dew Point: 11°C
Humidity: 94%
Barometer: 1018.3 hPa
Clouds: Partly Cloudy
Visibility: 24 km
Cloud details: Partly Cloudy 7620 m
2018/05/24 03:00 CYGK 240300Z 34006KT 15SM SCT250 12/11 A3007 RMK CI3 LAST STFD OBS/NEXT 241000 UTC SLP186